sensor_id;sensor_type;location;lat;lon;timestamp;P1;durP1;ratioP1;P2;durP2;ratioP2
11189;SDS011;5651;50.926;4.718;2022-09-17T00:02:22;7.53;;;1.85;;
11189;SDS011;5651;50.926;4.718;2022-09-17T00:04:49;12.63;;;2.00;;
11189;SDS011;5651;50.926;4.718;2022-09-17T00:07:16;8.88;;;1.80;;
11189;SDS011;5651;50.926;4.718;2022-09-17T00:09:42;10.63;;;1.73;;
11189;SDS011;5651;50.926;4.718;2022-09-17T00:12:08;6.78;;;1.60;;
11189;SDS011;5651;50.926;4.718;2022-09-17T00:14:34;12.05;;;3.03;;
11189;SDS011;5651;50.926;4.718;2022-09-17T00:17:00;5.47;;;2.42;;
11189;SDS011;5651;50.926;4.718;2022-09-17T00:19:27;11.13;;;1.95;;
11189;SDS011;5651;50.926;4.718;2022-09-17T00:21:52;8.55;;;1.70;;
11189;SDS011;5651;50.926;4.718;2022-09-17T00:24:18;7.93;;;1.60;;
11189;SDS011;5651;50.926;4.718;2022-09-17T00:26:45;7.95;;;1.60;;
11189;SDS011;5651;50.926;4.718;2022-09-17T00:29:11;11.18;;;1.80;;
11189;SDS011;5651;50.926;4.718;2022-09-17T00:31:37;6.75;;;1.60;;
11189;SDS011;5651;50.926;4.718;2022-09-17T00:34:03;10.45;;;1.55;;
11189;SDS011;5651;50.926;4.718;2022-09-17T00:36:30;5.50;;;1.20;;
11189;SDS011;5651;50.926;4.718;2022-09-17T00:38:58;6.88;;;1.50;;
11189;SDS011;5651;50.926;4.718;2022-09-17T00:41:26;9.60;;;1.65;;
11189;SDS011;5651;50.926;4.718;2022-09-17T00:43:55;7.05;;;1.42;;
11189;SDS011;5651;50.926;4.718;2022-09-17T00:48:51;8.10;;;1.73;;
11189;SDS011;5651;50.926;4.718;2022-09-17T00:51:20;8.48;;;1.60;;
11189;SDS011;5651;50.926;4.718;2022-09-17T00:53:52;9.55;;;2.40;;
11189;SDS011;5651;50.926;4.718;2022-09-17T00:56:27;6.60;;;1.45;;
11189;SDS011;5651;50.926;4.718;2022-09-17T00:58:55;12.90;;;2.10;;
11189;SDS011;5651;50.926;4.718;2022-09-17T01:01:22;10.88;;;2.10;;
11189;SDS011;5651;50.926;4.718;2022-09-17T01:03:48;9.93;;;1.98;;
11189;SDS011;5651;50.926;4.718;2022-09-17T01:06:24;9.70;;;1.80;;
11189;SDS011;5651;50.926;4.718;2022-09-17T01:11:59;8.68;;;2.35;;
11189;SDS011;5651;50.926;4.718;2022-09-17T01:17:31;12.30;;;2.70;;
11189;SDS011;5651;50.926;4.718;2022-09-17T01:31:19;7.70;;;1.85;;
11189;SDS011;5651;50.926;4.718;2022-09-17T01:36:43;8.77;;;1.92;;
11189;SDS011;5651;50.926;4.718;2022-09-17T01:42:12;8.30;;;1.73;;
11189;SDS011;5651;50.926;4.718;2022-09-17T01:47:28;5.30;;;1.85;;
11189;SDS011;5651;50.926;4.718;2022-09-17T01:50:12;7.40;;;1.27;;
11189;SDS011;5651;50.926;4.718;2022-09-17T01:52:59;6.15;;;1.38;;
11189;SDS011;5651;50.926;4.718;2022-09-17T01:55:26;13.88;;;1.90;;
11189;SDS011;5651;50.926;4.718;2022-09-17T01:57:59;8.88;;;1.50;;
11189;SDS011;5651;50.926;4.718;2022-09-17T02:00:29;11.65;;;2.03;;
11189;SDS011;5651;50.926;4.718;2022-09-17T02:02:58;11.15;;;1.88;;
11189;SDS011;5651;50.926;4.718;2022-09-17T02:08:04;7.32;;;1.80;;
11189;SDS011;5651;50.926;4.718;2022-09-17T02:10:33;8.65;;;1.58;;
11189;SDS011;5651;50.926;4.718;2022-09-17T02:13:07;8.20;;;1.65;;
11189;SDS011;5651;50.926;4.718;2022-09-17T02:15:42;10.38;;;1.80;;
11189;SDS011;5651;50.926;4.718;2022-09-17T02:20:55;10.05;;;1.58;;
11189;SDS011;5651;50.926;4.718;2022-09-17T02:23:33;7.93;;;2.15;;
11189;SDS011;5651;50.926;4.718;2022-09-17T02:26:06;9.45;;;2.42;;
11189;SDS011;5651;50.926;4.718;2022-09-17T02:28:39;9.32;;;1.65;;
11189;SDS011;5651;50.926;4.718;2022-09-17T02:31:18;10.38;;;2.10;;
11189;SDS011;5651;50.926;4.718;2022-09-17T02:33:45;11.90;;;2.20;;
11189;SDS011;5651;50.926;4.718;2022-09-17T02:36:14;11.18;;;2.10;;
11189;SDS011;5651;50.926;4.718;2022-09-17T02:38:42;9.45;;;2.20;;
11189;SDS011;5651;50.926;4.718;2022-09-17T02:43:49;12.88;;;2.25;;
11189;SDS011;5651;50.926;4.718;2022-09-17T02:49:14;13.48;;;2.83;;
11189;SDS011;5651;50.926;4.718;2022-09-17T02:57:36;5.38;;;1.80;;
11189;SDS011;5651;50.926;4.718;2022-09-17T03:02:44;8.93;;;1.90;;
11189;SDS011;5651;50.926;4.718;2022-09-17T03:05:15;9.52;;;2.22;;
11189;SDS011;5651;50.926;4.718;2022-09-17T03:07:45;9.35;;;2.50;;
11189;SDS011;5651;50.926;4.718;2022-09-17T03:10:11;12.88;;;2.15;;
11189;SDS011;5651;50.926;4.718;2022-09-17T03:12:37;12.93;;;2.38;;
11189;SDS011;5651;50.926;4.718;2022-09-17T03:15:04;8.85;;;1.63;;
11189;SDS011;5651;50.926;4.718;2022-09-17T03:17:31;9.73;;;2.63;;
11189;SDS011;5651;50.926;4.718;2022-09-17T03:19:56;13.27;;;1.85;;
11189;SDS011;5651;50.926;4.718;2022-09-17T03:22:22;10.85;;;1.83;;
11189;SDS011;5651;50.926;4.718;2022-09-17T03:24:48;15.98;;;2.15;;
11189;SDS011;5651;50.926;4.718;2022-09-17T03:27:14;9.68;;;2.05;;
11189;SDS011;5651;50.926;4.718;2022-09-17T03:29:40;8.70;;;1.90;;
11189;SDS011;5651;50.926;4.718;2022-09-17T03:32:05;6.20;;;1.40;;
11189;SDS011;5651;50.926;4.718;2022-09-17T03:34:31;11.15;;;1.70;;
11189;SDS011;5651;50.926;4.718;2022-09-17T03:36:57;9.93;;;2.50;;
11189;SDS011;5651;50.926;4.718;2022-09-17T03:39:23;6.78;;;1.58;;
11189;SDS011;5651;50.926;4.718;2022-09-17T03:41:49;12.00;;;2.33;;
11189;SDS011;5651;50.926;4.718;2022-09-17T03:44:15;10.27;;;1.77;;
11189;SDS011;5651;50.926;4.718;2022-09-17T03:46:43;12.27;;;2.60;;
11189;SDS011;5651;50.926;4.718;2022-09-17T03:49:09;15.70;;;3.03;;
11189;SDS011;5651;50.926;4.718;2022-09-17T03:51:35;11.43;;;1.85;;
11189;SDS011;5651;50.926;4.718;2022-09-17T03:54:01;12.18;;;2.00;;
11189;SDS011;5651;50.926;4.718;2022-09-17T03:56:27;9.43;;;1.98;;
11189;SDS011;5651;50.926;4.718;2022-09-17T03:58:59;10.98;;;2.17;;
11189;SDS011;5651;50.926;4.718;2022-09-17T04:01:26;8.50;;;1.77;;
11189;SDS011;5651;50.926;4.718;2022-09-17T04:03:53;9.10;;;2.38;;
11189;SDS011;5651;50.926;4.718;2022-09-17T04:06:19;9.50;;;1.60;;
11189;SDS011;5651;50.926;4.718;2022-09-17T04:08:45;10.93;;;1.90;;
11189;SDS011;5651;50.926;4.718;2022-09-17T04:11:11;8.82;;;3.45;;
11189;SDS011;5651;50.926;4.718;2022-09-17T04:13:36;17.25;;;3.28;;
11189;SDS011;5651;50.926;4.718;2022-09-17T04:16:02;10.55;;;1.70;;
11189;SDS011;5651;50.926;4.718;2022-09-17T04:18:29;13.13;;;2.55;;
11189;SDS011;5651;50.926;4.718;2022-09-17T04:20:55;11.52;;;2.75;;
11189;SDS011;5651;50.926;4.718;2022-09-17T04:23:21;10.93;;;2.08;;
11189;SDS011;5651;50.926;4.718;2022-09-17T04:25:47;15.63;;;3.45;;
11189;SDS011;5651;50.926;4.718;2022-09-17T04:28:13;9.02;;;2.70;;
11189;SDS011;5651;50.926;4.718;2022-09-17T04:30:38;11.50;;;2.00;;
11189;SDS011;5651;50.926;4.718;2022-09-17T04:33:05;16.45;;;2.47;;
11189;SDS011;5651;50.926;4.718;2022-09-17T04:35:31;12.85;;;2.15;;
11189;SDS011;5651;50.926;4.718;2022-09-17T04:37:57;18.38;;;2.42;;
11189;SDS011;5651;50.926;4.718;2022-09-17T04:40:23;12.77;;;2.80;;
11189;SDS011;5651;50.926;4.718;2022-09-17T04:42:51;17.83;;;3.15;;
11189;SDS011;5651;50.926;4.718;2022-09-17T04:45:21;15.27;;;2.88;;
11189;SDS011;5651;50.926;4.718;2022-09-17T04:47:47;14.50;;;2.80;;
11189;SDS011;5651;50.926;4.718;2022-09-17T04:50:18;13.10;;;2.72;;
11189;SDS011;5651;50.926;4.718;2022-09-17T04:52:44;13.00;;;2.67;;
11189;SDS011;5651;50.926;4.718;2022-09-17T04:55:10;16.52;;;2.92;;
11189;SDS011;5651;50.926;4.718;2022-09-17T04:57:37;15.60;;;3.10;;
11189;SDS011;5651;50.926;4.718;2022-09-17T05:00:04;15.63;;;2.90;;
11189;SDS011;5651;50.926;4.718;2022-09-17T05:02:34;17.60;;;3.00;;
11189;SDS011;5651;50.926;4.718;2022-09-17T05:05:00;17.48;;;3.13;;
11189;SDS011;5651;50.926;4.718;2022-09-17T05:07:26;15.48;;;3.15;;
11189;SDS011;5651;50.926;4.718;2022-09-17T05:09:52;16.48;;;3.00;;
11189;SDS011;5651;50.926;4.718;2022-09-17T05:12:18;9.25;;;2.72;;
11189;SDS011;5651;50.926;4.718;2022-09-17T05:14:44;11.63;;;2.65;;
11189;SDS011;5651;50.926;4.718;2022-09-17T05:17:10;14.73;;;2.55;;
11189;SDS011;5651;50.926;4.718;2022-09-17T05:19:36;16.75;;;3.13;;
11189;SDS011;5651;50.926;4.718;2022-09-17T05:22:01;11.80;;;2.10;;
11189;SDS011;5651;50.926;4.718;2022-09-17T05:24:27;15.20;;;2.53;;
11189;SDS011;5651;50.926;4.718;2022-09-17T05:26:53;13.13;;;2.45;;
11189;SDS011;5651;50.926;4.718;2022-09-17T05:29:19;9.95;;;2.15;;
11189;SDS011;5651;50.926;4.718;2022-09-17T05:31:44;12.80;;;2.15;;
11189;SDS011;5651;50.926;4.718;2022-09-17T05:34:10;8.55;;;2.40;;
11189;SDS011;5651;50.926;4.718;2022-09-17T05:36:36;8.25;;;2.35;;
11189;SDS011;5651;50.926;4.718;2022-09-17T05:39:02;9.25;;;1.90;;
11189;SDS011;5651;50.926;4.718;2022-09-17T05:41:27;7.78;;;1.90;;
11189;SDS011;5651;50.926;4.718;2022-09-17T05:43:53;8.82;;;1.65;;
11189;SDS011;5651;50.926;4.718;2022-09-17T05:46:19;16.05;;;2.42;;
11189;SDS011;5651;50.926;4.718;2022-09-17T05:48:45;14.25;;;2.33;;
11189;SDS011;5651;50.926;4.718;2022-09-17T05:51:10;19.27;;;3.08;;
11189;SDS011;5651;50.926;4.718;2022-09-17T05:53:36;15.40;;;3.08;;
11189;SDS011;5651;50.926;4.718;2022-09-17T05:56:02;12.32;;;2.10;;
11189;SDS011;5651;50.926;4.718;2022-09-17T05:58:28;8.15;;;2.00;;
11189;SDS011;5651;50.926;4.718;2022-09-17T06:00:54;12.13;;;2.15;;
11189;SDS011;5651;50.926;4.718;2022-09-17T06:03:20;18.92;;;3.60;;
11189;SDS011;5651;50.926;4.718;2022-09-17T06:05:53;11.48;;;2.17;;
11189;SDS011;5651;50.926;4.718;2022-09-17T06:08:21;12.52;;;2.33;;
11189;SDS011;5651;50.926;4.718;2022-09-17T06:10:47;14.02;;;2.53;;
11189;SDS011;5651;50.926;4.718;2022-09-17T06:13:14;9.93;;;2.30;;
11189;SDS011;5651;50.926;4.718;2022-09-17T06:15:40;11.23;;;2.33;;
11189;SDS011;5651;50.926;4.718;2022-09-17T06:18:06;18.30;;;3.00;;
11189;SDS011;5651;50.926;4.718;2022-09-17T06:20:32;8.35;;;2.00;;
11189;SDS011;5651;50.926;4.718;2022-09-17T06:22:58;12.50;;;2.13;;
11189;SDS011;5651;50.926;4.718;2022-09-17T06:25:24;11.70;;;1.92;;
11189;SDS011;5651;50.926;4.718;2022-09-17T06:27:50;11.38;;;1.75;;
11189;SDS011;5651;50.926;4.718;2022-09-17T06:30:16;14.02;;;2.10;;
11189;SDS011;5651;50.926;4.718;2022-09-17T06:32:42;11.20;;;1.52;;
11189;SDS011;5651;50.926;4.718;2022-09-17T06:35:08;11.77;;;4.07;;
11189;SDS011;5651;50.926;4.718;2022-09-17T06:37:34;8.98;;;1.88;;
11189;SDS011;5651;50.926;4.718;2022-09-17T06:40:04;12.90;;;2.38;;
11189;SDS011;5651;50.926;4.718;2022-09-17T06:42:31;9.93;;;2.95;;
11189;SDS011;5651;50.926;4.718;2022-09-17T06:44:56;12.18;;;2.53;;
11189;SDS011;5651;50.926;4.718;2022-09-17T06:47:25;10.05;;;2.55;;
11189;SDS011;5651;50.926;4.718;2022-09-17T06:49:51;12.65;;;1.88;;
11189;SDS011;5651;50.926;4.718;2022-09-17T06:52:17;9.52;;;1.55;;
11189;SDS011;5651;50.926;4.718;2022-09-17T06:54:43;7.60;;;1.75;;
11189;SDS011;5651;50.926;4.718;2022-09-17T06:57:08;10.48;;;1.60;;
11189;SDS011;5651;50.926;4.718;2022-09-17T06:59:34;8.73;;;2.05;;
11189;SDS011;5651;50.926;4.718;2022-09-17T07:02:00;11.15;;;2.00;;
11189;SDS011;5651;50.926;4.718;2022-09-17T07:04:25;11.25;;;2.15;;
11189;SDS011;5651;50.926;4.718;2022-09-17T07:06:51;11.02;;;1.85;;
11189;SDS011;5651;50.926;4.718;2022-09-17T07:09:17;8.15;;;1.70;;
11189;SDS011;5651;50.926;4.718;2022-09-17T07:11:43;8.93;;;1.90;;
11189;SDS011;5651;50.926;4.718;2022-09-17T07:14:08;12.43;;;3.20;;
11189;SDS011;5651;50.926;4.718;2022-09-17T07:16:34;9.80;;;2.33;;
11189;SDS011;5651;50.926;4.718;2022-09-17T07:19:01;13.10;;;2.28;;
11189;SDS011;5651;50.926;4.718;2022-09-17T07:21:27;13.45;;;2.45;;
11189;SDS011;5651;50.926;4.718;2022-09-17T07:23:53;7.35;;;1.95;;
11189;SDS011;5651;50.926;4.718;2022-09-17T07:26:19;10.13;;;1.80;;
11189;SDS011;5651;50.926;4.718;2022-09-17T07:28:45;9.13;;;2.08;;
11189;SDS011;5651;50.926;4.718;2022-09-17T07:31:11;13.57;;;2.30;;
11189;SDS011;5651;50.926;4.718;2022-09-17T07:33:38;12.73;;;2.58;;
11189;SDS011;5651;50.926;4.718;2022-09-17T07:36:05;9.15;;;1.95;;
11189;SDS011;5651;50.926;4.718;2022-09-17T07:38:42;5.38;;;1.60;;
11189;SDS011;5651;50.926;4.718;2022-09-17T07:41:12;11.65;;;2.20;;
11189;SDS011;5651;50.926;4.718;2022-09-17T07:43:39;11.82;;;2.35;;
11189;SDS011;5651;50.926;4.718;2022-09-17T07:46:06;9.65;;;2.47;;
11189;SDS011;5651;50.926;4.718;2022-09-17T07:48:34;8.30;;;1.67;;
11189;SDS011;5651;50.926;4.718;2022-09-17T07:51:00;13.45;;;1.85;;
11189;SDS011;5651;50.926;4.718;2022-09-17T07:53:26;14.55;;;2.17;;
11189;SDS011;5651;50.926;4.718;2022-09-17T07:58:22;13.00;;;3.17;;
11189;SDS011;5651;50.926;4.718;2022-09-17T08:00:52;7.38;;;1.75;;
11189;SDS011;5651;50.926;4.718;2022-09-17T08:03:18;8.68;;;2.38;;
11189;SDS011;5651;50.926;4.718;2022-09-17T08:05:44;7.25;;;2.45;;
11189;SDS011;5651;50.926;4.718;2022-09-17T08:08:10;7.80;;;1.48;;
11189;SDS011;5651;50.926;4.718;2022-09-17T08:10:35;7.05;;;1.90;;
11189;SDS011;5651;50.926;4.718;2022-09-17T08:13:01;9.10;;;1.67;;
11189;SDS011;5651;50.926;4.718;2022-09-17T08:15:27;9.82;;;1.80;;
11189;SDS011;5651;50.926;4.718;2022-09-17T08:17:53;8.23;;;1.65;;
11189;SDS011;5651;50.926;4.718;2022-09-17T08:20:19;6.90;;;1.40;;
11189;SDS011;5651;50.926;4.718;2022-09-17T08:22:45;5.60;;;1.60;;
11189;SDS011;5651;50.926;4.718;2022-09-17T08:25:10;8.18;;;1.85;;
11189;SDS011;5651;50.926;4.718;2022-09-17T08:27:36;10.63;;;1.67;;
11189;SDS011;5651;50.926;4.718;2022-09-17T08:30:03;9.60;;;1.48;;
11189;SDS011;5651;50.926;4.718;2022-09-17T08:32:30;9.65;;;1.80;;
11189;SDS011;5651;50.926;4.718;2022-09-17T08:34:56;9.82;;;2.13;;
11189;SDS011;5651;50.926;4.718;2022-09-17T08:37:22;8.50;;;1.73;;
11189;SDS011;5651;50.926;4.718;2022-09-17T08:39:48;9.43;;;2.13;;
11189;SDS011;5651;50.926;4.718;2022-09-17T08:44:51;5.68;;;1.40;;
11189;SDS011;5651;50.926;4.718;2022-09-17T08:47:28;6.43;;;1.90;;
11189;SDS011;5651;50.926;4.718;2022-09-17T08:49:58;7.10;;;1.35;;
11189;SDS011;5651;50.926;4.718;2022-09-17T09:00:57;5.45;;;1.42;;
11189;SDS011;5651;50.926;4.718;2022-09-17T09:06:28;5.68;;;1.52;;
11189;SDS011;5651;50.926;4.718;2022-09-17T09:09:02;8.32;;;1.85;;
11189;SDS011;5651;50.926;4.718;2022-09-17T09:11:31;9.05;;;1.35;;
11189;SDS011;5651;50.926;4.718;2022-09-17T09:13:59;5.97;;;1.50;;
11189;SDS011;5651;50.926;4.718;2022-09-17T09:16:31;8.40;;;1.55;;
11189;SDS011;5651;50.926;4.718;2022-09-17T09:19:12;9.90;;;1.55;;
11189;SDS011;5651;50.926;4.718;2022-09-17T09:22:10;7.78;;;2.05;;
11189;SDS011;5651;50.926;4.718;2022-09-17T09:27:53;3.33;;;1.10;;
11189;SDS011;5651;50.926;4.718;2022-09-17T09:30:35;5.95;;;1.70;;
11189;SDS011;5651;50.926;4.718;2022-09-17T09:33:13;7.10;;;1.50;;
11189;SDS011;5651;50.926;4.718;2022-09-17T09:35:42;10.88;;;2.22;;
11189;SDS011;5651;50.926;4.718;2022-09-17T09:38:17;6.90;;;1.77;;
11189;SDS011;5651;50.926;4.718;2022-09-17T09:43:33;7.50;;;2.08;;
11189;SDS011;5651;50.926;4.718;2022-09-17T09:46:16;9.32;;;2.03;;
11189;SDS011;5651;50.926;4.718;2022-09-17T09:51:58;5.78;;;1.10;;
11189;SDS011;5651;50.926;4.718;2022-09-17T09:57:17;3.88;;;0.90;;
11189;SDS011;5651;50.926;4.718;2022-09-17T10:02:51;5.15;;;1.10;;
11189;SDS011;5651;50.926;4.718;2022-09-17T10:05:21;6.40;;;1.23;;
11189;SDS011;5651;50.926;4.718;2022-09-17T10:07:48;5.22;;;1.10;;
11189;SDS011;5651;50.926;4.718;2022-09-17T10:10:13;8.15;;;1.23;;
11189;SDS011;5651;50.926;4.718;2022-09-17T10:12:39;3.97;;;1.15;;
11189;SDS011;5651;50.926;4.718;2022-09-17T10:15:24;5.53;;;1.30;;
11189;SDS011;5651;50.926;4.718;2022-09-17T10:18:11;6.38;;;1.42;;
11189;SDS011;5651;50.926;4.718;2022-09-17T10:20:52;4.80;;;1.23;;
11189;SDS011;5651;50.926;4.718;2022-09-17T10:23:20;9.43;;;1.98;;
11189;SDS011;5651;50.926;4.718;2022-09-17T10:25:47;6.55;;;1.65;;
11189;SDS011;5651;50.926;4.718;2022-09-17T10:28:28;7.00;;;1.92;;
11189;SDS011;5651;50.926;4.718;2022-09-17T10:31:01;7.05;;;1.30;;
11189;SDS011;5651;50.926;4.718;2022-09-17T10:33:30;3.08;;;1.42;;
11189;SDS011;5651;50.926;4.718;2022-09-17T10:36:03;7.63;;;1.17;;
11189;SDS011;5651;50.926;4.718;2022-09-17T10:38:33;4.38;;;0.80;;
11189;SDS011;5651;50.926;4.718;2022-09-17T10:43:46;8.07;;;1.48;;
11189;SDS011;5651;50.926;4.718;2022-09-17T10:46:14;1.40;;;0.70;;
11189;SDS011;5651;50.926;4.718;2022-09-17T10:48:57;3.80;;;1.20;;
11189;SDS011;5651;50.926;4.718;2022-09-17T10:51:34;3.33;;;0.98;;
11189;SDS011;5651;50.926;4.718;2022-09-17T10:54:04;3.92;;;1.02;;
11189;SDS011;5651;50.926;4.718;2022-09-17T10:56:39;1.25;;;0.60;;
11189;SDS011;5651;50.926;4.718;2022-09-17T11:01:57;2.17;;;0.57;;
11189;SDS011;5651;50.926;4.718;2022-09-17T11:20:19;3.50;;;0.95;;
11189;SDS011;5651;50.926;4.718;2022-09-17T11:23:00;3.38;;;0.90;;
11189;SDS011;5651;50.926;4.718;2022-09-17T11:33:38;2.72;;;0.70;;
11189;SDS011;5651;50.926;4.718;2022-09-17T11:36:17;4.18;;;0.77;;
11189;SDS011;5651;50.926;4.718;2022-09-17T11:38:48;4.28;;;0.85;;
11189;SDS011;5651;50.926;4.718;2022-09-17T11:43:49;4.18;;;1.00;;
11189;SDS011;5651;50.926;4.718;2022-09-17T11:46:27;7.72;;;1.20;;
11189;SDS011;5651;50.926;4.718;2022-09-17T11:49:04;4.75;;;1.15;;
11189;SDS011;5651;50.926;4.718;2022-09-17T11:51:42;4.03;;;1.10;;
11189;SDS011;5651;50.926;4.718;2022-09-17T11:54:17;2.80;;;0.73;;
11189;SDS011;5651;50.926;4.718;2022-09-17T11:57:04;2.75;;;1.25;;
11189;SDS011;5651;50.926;4.718;2022-09-17T11:59:42;5.72;;;0.60;;
11189;SDS011;5651;50.926;4.718;2022-09-17T12:02:16;4.03;;;0.70;;
11189;SDS011;5651;50.926;4.718;2022-09-17T12:10:15;5.50;;;0.90;;
11189;SDS011;5651;50.926;4.718;2022-09-17T12:12:53;3.30;;;0.70;;
11189;SDS011;5651;50.926;4.718;2022-09-17T12:15:24;6.07;;;1.05;;
11189;SDS011;5651;50.926;4.718;2022-09-17T12:18:06;4.55;;;0.80;;
11189;SDS011;5651;50.926;4.718;2022-09-17T12:20:35;4.20;;;1.35;;
11189;SDS011;5651;50.926;4.718;2022-09-17T12:23:08;3.92;;;1.10;;
11189;SDS011;5651;50.926;4.718;2022-09-17T12:25:47;5.38;;;0.90;;
11189;SDS011;5651;50.926;4.718;2022-09-17T12:30:55;5.88;;;1.00;;
11189;SDS011;5651;50.926;4.718;2022-09-17T12:33:40;4.22;;;0.80;;
11189;SDS011;5651;50.926;4.718;2022-09-17T12:39:00;3.83;;;0.85;;
11189;SDS011;5651;50.926;4.718;2022-09-17T12:44:20;5.93;;;1.13;;
11189;SDS011;5651;50.926;4.718;2022-09-17T12:52:24;6.93;;;2.15;;
11189;SDS011;5651;50.926;4.718;2022-09-17T13:01:05;7.78;;;1.00;;
11189;SDS011;5651;50.926;4.718;2022-09-17T13:03:50;4.57;;;1.25;;
11189;SDS011;5651;50.926;4.718;2022-09-17T13:15:02;6.18;;;1.65;;
11189;SDS011;5651;50.926;4.718;2022-09-17T13:17:54;9.80;;;1.60;;
11189;SDS011;5651;50.926;4.718;2022-09-17T13:20:32;5.30;;;1.27;;
11189;SDS011;5651;50.926;4.718;2022-09-17T13:23:07;7.45;;;1.75;;
11189;SDS011;5651;50.926;4.718;2022-09-17T13:25:41;7.28;;;1.42;;
11189;SDS011;5651;50.926;4.718;2022-09-17T13:28:15;10.77;;;2.00;;
11189;SDS011;5651;50.926;4.718;2022-09-17T13:30:57;10.05;;;1.80;;
11189;SDS011;5651;50.926;4.718;2022-09-17T13:39:03;8.52;;;1.95;;
11189;SDS011;5651;50.926;4.718;2022-09-17T13:41:31;9.90;;;2.85;;
11189;SDS011;5651;50.926;4.718;2022-09-17T13:44:02;9.23;;;2.10;;
11189;SDS011;5651;50.926;4.718;2022-09-17T13:46:29;17.98;;;2.53;;
11189;SDS011;5651;50.926;4.718;2022-09-17T13:48:58;10.70;;;2.00;;
11189;SDS011;5651;50.926;4.718;2022-09-17T13:53:57;12.30;;;2.35;;
11189;SDS011;5651;50.926;4.718;2022-09-17T13:56:35;7.00;;;1.50;;
11189;SDS011;5651;50.926;4.718;2022-09-17T14:09:49;5.93;;;1.35;;
11189;SDS011;5651;50.926;4.718;2022-09-17T14:15:03;4.57;;;1.15;;
11189;SDS011;5651;50.926;4.718;2022-09-17T14:17:52;5.25;;;0.95;;
11189;SDS011;5651;50.926;4.718;2022-09-17T14:20:18;3.90;;;0.85;;
11189;SDS011;5651;50.926;4.718;2022-09-17T14:25:44;4.13;;;0.98;;
11189;SDS011;5651;50.926;4.718;2022-09-17T14:28:33;5.43;;;1.02;;
11189;SDS011;5651;50.926;4.718;2022-09-17T14:31:12;3.63;;;0.85;;
11189;SDS011;5651;50.926;4.718;2022-09-17T14:33:49;5.32;;;1.35;;
11189;SDS011;5651;50.926;4.718;2022-09-17T14:36:19;1.73;;;0.80;;
11189;SDS011;5651;50.926;4.718;2022-09-17T14:38:47;6.53;;;1.08;;
11189;SDS011;5651;50.926;4.718;2022-09-17T14:41:24;7.07;;;1.23;;
11189;SDS011;5651;50.926;4.718;2022-09-17T14:44:02;7.65;;;1.10;;
11189;SDS011;5651;50.926;4.718;2022-09-17T14:49:26;7.88;;;1.13;;
11189;SDS011;5651;50.926;4.718;2022-09-17T14:51:55;3.22;;;0.77;;
11189;SDS011;5651;50.926;4.718;2022-09-17T14:54:23;2.60;;;0.68;;
11189;SDS011;5651;50.926;4.718;2022-09-17T14:56:51;2.25;;;0.60;;
11189;SDS011;5651;50.926;4.718;2022-09-17T14:59:28;4.20;;;0.95;;
11189;SDS011;5651;50.926;4.718;2022-09-17T15:01:56;5.40;;;0.70;;
11189;SDS011;5651;50.926;4.718;2022-09-17T15:04:25;4.10;;;0.80;;
11189;SDS011;5651;50.926;4.718;2022-09-17T15:07:05;4.47;;;0.88;;
11189;SDS011;5651;50.926;4.718;2022-09-17T15:09:36;3.28;;;0.57;;
11189;SDS011;5651;50.926;4.718;2022-09-17T15:12:02;7.22;;;1.20;;
11189;SDS011;5651;50.926;4.718;2022-09-17T15:14:30;3.05;;;0.80;;
11189;SDS011;5651;50.926;4.718;2022-09-17T15:16:59;3.92;;;0.57;;
11189;SDS011;5651;50.926;4.718;2022-09-17T15:22:11;3.78;;;0.73;;
11189;SDS011;5651;50.926;4.718;2022-09-17T15:24:42;4.28;;;0.70;;
11189;SDS011;5651;50.926;4.718;2022-09-17T15:30:16;3.53;;;0.82;;
11189;SDS011;5651;50.926;4.718;2022-09-17T15:33:08;5.82;;;0.73;;
11189;SDS011;5651;50.926;4.718;2022-09-17T15:35:33;5.00;;;0.90;;
11189;SDS011;5651;50.926;4.718;2022-09-17T15:38:00;3.38;;;0.70;;
11189;SDS011;5651;50.926;4.718;2022-09-17T15:40:33;6.35;;;1.15;;
11189;SDS011;5651;50.926;4.718;2022-09-17T15:45:47;5.72;;;0.95;;
11189;SDS011;5651;50.926;4.718;2022-09-17T15:50:58;5.35;;;0.90;;
11189;SDS011;5651;50.926;4.718;2022-09-17T15:53:26;4.32;;;1.00;;
11189;SDS011;5651;50.926;4.718;2022-09-17T15:56:02;3.88;;;0.82;;
11189;SDS011;5651;50.926;4.718;2022-09-17T16:08:43;4.45;;;0.90;;
11189;SDS011;5651;50.926;4.718;2022-09-17T16:11:13;7.35;;;1.30;;
11189;SDS011;5651;50.926;4.718;2022-09-17T16:13:40;7.95;;;1.45;;
11189;SDS011;5651;50.926;4.718;2022-09-17T16:16:06;2.85;;;0.98;;
11189;SDS011;5651;50.926;4.718;2022-09-17T16:18:43;9.63;;;2.33;;
11189;SDS011;5651;50.926;4.718;2022-09-17T16:21:10;3.67;;;1.10;;
11189;SDS011;5651;50.926;4.718;2022-09-17T16:23:36;6.63;;;1.00;;
11189;SDS011;5651;50.926;4.718;2022-09-17T16:26:02;4.35;;;1.10;;
11189;SDS011;5651;50.926;4.718;2022-09-17T16:28:29;4.28;;;1.13;;
11189;SDS011;5651;50.926;4.718;2022-09-17T16:30:55;7.30;;;1.60;;
11189;SDS011;5651;50.926;4.718;2022-09-17T16:33:21;9.48;;;1.80;;
11189;SDS011;5651;50.926;4.718;2022-09-17T16:35:47;7.97;;;1.73;;
11189;SDS011;5651;50.926;4.718;2022-09-17T16:38:13;9.73;;;1.20;;
11189;SDS011;5651;50.926;4.718;2022-09-17T16:40:43;8.57;;;1.92;;
11189;SDS011;5651;50.926;4.718;2022-09-17T16:43:11;9.45;;;2.03;;
11189;SDS011;5651;50.926;4.718;2022-09-17T16:45:37;7.85;;;1.30;;
11189;SDS011;5651;50.926;4.718;2022-09-17T16:48:03;4.25;;;1.00;;
11189;SDS011;5651;50.926;4.718;2022-09-17T16:50:30;9.43;;;2.70;;
11189;SDS011;5651;50.926;4.718;2022-09-17T16:52:56;4.47;;;1.10;;
11189;SDS011;5651;50.926;4.718;2022-09-17T16:55:22;7.28;;;1.40;;
11189;SDS011;5651;50.926;4.718;2022-09-17T16:57:48;5.47;;;1.48;;
11189;SDS011;5651;50.926;4.718;2022-09-17T17:00:15;10.13;;;1.50;;
11189;SDS011;5651;50.926;4.718;2022-09-17T17:02:50;6.35;;;1.73;;
11189;SDS011;5651;50.926;4.718;2022-09-17T17:05:20;8.93;;;1.52;;
11189;SDS011;5651;50.926;4.718;2022-09-17T17:07:47;10.73;;;1.30;;
11189;SDS011;5651;50.926;4.718;2022-09-17T17:10:13;5.20;;;1.30;;
11189;SDS011;5651;50.926;4.718;2022-09-17T17:12:39;7.05;;;1.50;;
11189;SDS011;5651;50.926;4.718;2022-09-17T17:15:05;5.63;;;1.50;;
11189;SDS011;5651;50.926;4.718;2022-09-17T17:17:32;6.75;;;1.60;;
11189;SDS011;5651;50.926;4.718;2022-09-17T17:20:00;6.55;;;1.52;;
11189;SDS011;5651;50.926;4.718;2022-09-17T17:22:29;10.23;;;1.67;;
11189;SDS011;5651;50.926;4.718;2022-09-17T17:24:54;5.63;;;1.70;;
11189;SDS011;5651;50.926;4.718;2022-09-17T17:27:20;5.65;;;1.80;;
11189;SDS011;5651;50.926;4.718;2022-09-17T17:29:46;6.93;;;1.55;;
11189;SDS011;5651;50.926;4.718;2022-09-17T17:32:12;9.27;;;2.13;;
11189;SDS011;5651;50.926;4.718;2022-09-17T17:34:38;9.00;;;2.25;;
11189;SDS011;5651;50.926;4.718;2022-09-17T17:37:03;7.60;;;2.50;;
11189;SDS011;5651;50.926;4.718;2022-09-17T17:39:29;9.55;;;2.58;;
11189;SDS011;5651;50.926;4.718;2022-09-17T17:41:55;9.27;;;2.08;;
11189;SDS011;5651;50.926;4.718;2022-09-17T17:44:21;7.40;;;3.00;;
11189;SDS011;5651;50.926;4.718;2022-09-17T17:46:46;9.02;;;2.10;;
11189;SDS011;5651;50.926;4.718;2022-09-17T17:49:12;11.27;;;2.83;;
11189;SDS011;5651;50.926;4.718;2022-09-17T17:51:38;8.52;;;2.85;;
11189;SDS011;5651;50.926;4.718;2022-09-17T17:54:04;9.32;;;2.30;;
11189;SDS011;5651;50.926;4.718;2022-09-17T17:56:30;9.02;;;2.78;;
11189;SDS011;5651;50.926;4.718;2022-09-17T17:58:56;7.35;;;2.65;;
11189;SDS011;5651;50.926;4.718;2022-09-17T18:01:24;6.93;;;2.63;;
11189;SDS011;5651;50.926;4.718;2022-09-17T18:03:58;5.82;;;2.33;;
11189;SDS011;5651;50.926;4.718;2022-09-17T18:06:26;10.23;;;2.70;;
11189;SDS011;5651;50.926;4.718;2022-09-17T18:08:53;8.90;;;2.33;;
11189;SDS011;5651;50.926;4.718;2022-09-17T18:11:19;9.13;;;2.20;;
11189;SDS011;5651;50.926;4.718;2022-09-17T18:13:49;8.40;;;2.20;;
11189;SDS011;5651;50.926;4.718;2022-09-17T18:16:16;8.48;;;2.13;;
11189;SDS011;5651;50.926;4.718;2022-09-17T18:18:42;6.45;;;1.85;;
11189;SDS011;5651;50.926;4.718;2022-09-17T18:21:11;6.65;;;2.05;;
11189;SDS011;5651;50.926;4.718;2022-09-17T18:23:38;10.30;;;2.97;;
11189;SDS011;5651;50.926;4.718;2022-09-17T18:26:06;5.38;;;2.42;;